Time;durP1;ratioP1;P1;durP2;ratioP2;P2;SDS_P1;SDS_P2;PMS_P1;PMS_P2;Temp;Humidity;BMP_temperature;BMP_pressure;BME280_temperature;BME280_humidity;BME280_pressure;Samples;Min_cycle;Max_cycle;Signal;HPM_P1;HPM_P2
2024/04/17 00:05:06;;;;;;;;;27.50;8.50;;;;;;;;10454423;28;43036;-59
2024/04/17 00:10:10;;;;;;;;;27.75;8.00;;;;;;;;10447517;28;43499;-63
2024/04/17 00:15:13;;;;;;;;;23.75;9.00;;;;;;;;10452962;28;43266;-63
2024/04/17 00:20:17;;;;;;;;;27.75;8.00;;;;;;;;10424496;28;42930;-59
2024/04/17 00:25:21;;;;;;;;;20.50;5.00;;;;;;;;10439259;28;49158;-59
2024/04/17 00:30:25;;;;;;;;;22.00;8.25;;;;;;;;10450932;28;42927;-59
2024/04/17 00:35:28;;;;;;;;;19.25;4.75;;;;;;;;10433512;28;44472;-58
2024/04/17 00:40:32;;;;;;;;;24.75;6.50;;;;;;;;10450539;28;43344;-60
2024/04/17 00:45:41;;;;;;;;;25.00;8.00;;;;;;;;10433651;28;47995;-59
2024/04/17 00:50:52;;;;;;;;;21.00;4.75;;;;;;;;10452126;28;42987;-57
2024/04/17 00:55:57;;;;;;;;;22.50;5.75;;;;;;;;10452509;28;48540;-61
2024/04/17 01:01:01;;;;;;;;;19.75;5.25;;;;;;;;10452711;28;42949;-58
2024/04/17 01:06:05;;;;;;;;;20.25;6.00;;;;;;;;10436295;28;48666;-58
2024/04/17 01:11:08;;;;;;;;;23.25;6.25;;;;;;;;10442077;28;43279;-56
2024/04/17 01:16:12;;;;;;;;;33.25;10.00;;;;;;;;10461317;28;43948;-57
2024/04/17 01:21:16;;;;;;;;;28.50;14.00;;;;;;;;10467365;27;43508;-63
2024/04/17 01:26:21;;;;;;;;;34.75;14.75;;;;;;;;10483751;27;43804;-58
2024/04/17 01:31:25;;;;;;;;;40.00;17.00;;;;;;;;10491084;27;43363;-59
2024/04/17 01:36:28;;;;;;;;;35.50;19.75;;;;;;;;10492711;27;42969;-60
2024/04/17 01:41:33;;;;;;;;;33.75;14.50;;;;;;;;10488637;28;44213;-60
2024/04/17 01:46:37;;;;;;;;;38.00;11.50;;;;;;;;10493430;28;43018;-62
2024/04/17 01:51:41;;;;;;;;;47.75;16.00;;;;;;;;10484230;27;43659;-59
2024/04/17 01:56:45;;;;;;;;;27.50;7.75;;;;;;;;10476784;27;43888;-60
2024/04/17 02:01:48;;;;;;;;;30.50;12.25;;;;;;;;10491990;27;43553;-62
2024/04/17 02:06:52;;;;;;;;;23.00;7.00;;;;;;;;10491565;27;43759;-60
2024/04/17 02:11:56;;;;;;;;;30.50;9.00;;;;;;;;10477318;28;43013;-60
2024/04/17 02:16:59;;;;;;;;;29.00;11.75;;;;;;;;10477563;27;43952;-59
2024/04/17 02:22:03;;;;;;;;;23.50;7.50;;;;;;;;10490327;28;43292;-59
2024/04/17 02:27:07;;;;;;;;;35.75;8.00;;;;;;;;10497504;27;44632;-59
2024/04/17 02:32:11;;;;;;;;;29.25;10.50;;;;;;;;10501538;27;44186;-59
2024/04/17 02:37:14;;;;;;;;;33.50;9.25;;;;;;;;10498985;27;43544;-59
2024/04/17 02:42:18;;;;;;;;;22.25;7.50;;;;;;;;10498063;27;42988;-59
2024/04/17 02:47:23;;;;;;;;;25.25;7.50;;;;;;;;10483711;28;42959;-60
2024/04/17 02:52:27;;;;;;;;;23.75;7.75;;;;;;;;10491836;28;43722;-60
2024/04/17 02:57:31;;;;;;;;;21.25;6.00;;;;;;;;10497458;27;43031;-59
2024/04/17 03:02:34;;;;;;;;;23.00;7.00;;;;;;;;10468239;28;43004;-59
2024/04/17 03:07:38;;;;;;;;;28.25;7.25;;;;;;;;10490863;27;45348;-60
2024/04/17 03:12:41;;;;;;;;;27.00;7.25;;;;;;;;10477783;27;43886;-59
2024/04/17 03:17:48;;;;;;;;;31.25;6.25;;;;;;;;10486026;27;43123;-59
2024/04/17 03:22:52;;;;;;;;;23.25;6.00;;;;;;;;10521613;27;43857;-59
2024/04/17 03:27:55;;;;;;;;;20.50;7.25;;;;;;;;10493751;27;43888;-61
2024/04/17 03:32:59;;;;;;;;;26.50;6.25;;;;;;;;10505618;27;43313;-64
2024/04/17 03:38:02;;;;;;;;;23.75;6.75;;;;;;;;10472174;27;44068;-59
2024/04/17 03:43:05;;;;;;;;;25.50;6.50;;;;;;;;10490487;27;42931;-63
2024/04/17 03:48:10;;;;;;;;;22.00;6.00;;;;;;;;10503845;28;43589;-61
2024/04/17 03:53:13;;;;;;;;;28.00;8.25;;;;;;;;10516939;27;42942;-60
2024/04/17 03:58:17;;;;;;;;;21.00;4.00;;;;;;;;10491879;27;43388;-62
2024/04/17 04:03:20;;;;;;;;;22.00;4.25;;;;;;;;10475061;27;43020;-61
2024/04/17 04:08:25;;;;;;;;;20.50;5.00;;;;;;;;10486029;27;42940;-61
2024/04/17 04:13:29;;;;;;;;;20.00;7.00;;;;;;;;10495593;28;43642;-65
2024/04/17 04:18:32;;;;;;;;;26.50;8.00;;;;;;;;10482406;27;49158;-63
2024/04/17 04:23:35;;;;;;;;;23.00;8.50;;;;;;;;10482535;28;43905;-62
2024/04/17 04:28:39;;;;;;;;;21.25;6.00;;;;;;;;10477341;28;43072;-61
2024/04/17 04:33:42;;;;;;;;;28.75;8.25;;;;;;;;10486388;28;44452;-59
2024/04/17 04:38:46;;;;;;;;;43.75;18.50;;;;;;;;10491909;27;44032;-60
2024/04/17 04:43:51;;;;;;;;;44.50;26.25;;;;;;;;10495140;27;42971;-61
2024/04/17 04:48:56;;;;;;;;;54.00;29.00;;;;;;;;10505019;27;43485;-61
2024/04/17 04:53:59;;;;;;;;;54.50;31.50;;;;;;;;10497513;27;43571;-60
2024/04/17 04:59:03;;;;;;;;;50.00;28.00;;;;;;;;10494545;28;43775;-60
2024/04/17 05:04:07;;;;;;;;;53.50;35.00;;;;;;;;10479812;28;44127;-62
2024/04/17 05:09:10;;;;;;;;;49.00;30.50;;;;;;;;10493853;28;42935;-61
2024/04/17 05:14:14;;;;;;;;;52.25;31.00;;;;;;;;10487915;28;43030;-59
2024/04/17 05:19:17;;;;;;;;;47.00;29.00;;;;;;;;10466245;28;43603;-58
2024/04/17 05:24:21;;;;;;;;;51.25;29.00;;;;;;;;10447257;28;43914;-59
2024/04/17 05:29:25;;;;;;;;;41.50;20.00;;;;;;;;10443066;28;43915;-59
2024/04/17 05:34:29;;;;;;;;;36.75;20.00;;;;;;;;10452070;28;43742;-58
2024/04/17 05:39:32;;;;;;;;;44.25;24.00;;;;;;;;10446192;28;43107;-58
2024/04/17 05:44:37;;;;;;;;;40.00;21.50;;;;;;;;10451592;28;43665;-58
2024/04/17 05:49:41;;;;;;;;;39.75;22.00;;;;;;;;10446453;28;44303;-59
2024/04/17 05:54:45;;;;;;;;;32.00;16.50;;;;;;;;10453652;28;43909;-58
2024/04/17 05:59:48;;;;;;;;;42.75;20.75;;;;;;;;10457947;28;43760;-59
2024/04/17 06:04:52;;;;;;;;;38.75;17.00;;;;;;;;10442238;28;44006;-59
2024/04/17 06:09:56;;;;;;;;;37.25;18.00;;;;;;;;10453931;28;43996;-58
2024/04/17 06:14:59;;;;;;;;;38.25;17.50;;;;;;;;10454984;28;44010;-58
2024/04/17 06:20:04;;;;;;;;;32.75;15.00;;;;;;;;10456252;28;42977;-60
2024/04/17 06:25:07;;;;;;;;;36.75;13.50;;;;;;;;10453547;28;43314;-59
2024/04/17 06:30:11;;;;;;;;;40.50;16.00;;;;;;;;10451955;28;43779;-58
2024/04/17 06:35:16;;;;;;;;;29.25;13.50;;;;;;;;10456680;28;42979;-58
2024/04/17 06:40:19;;;;;;;;;50.00;28.25;;;;;;;;10456114;28;43025;-58
2024/04/17 06:45:23;;;;;;;;;51.50;32.00;;;;;;;;10454841;28;44029;-59
2024/04/17 06:50:28;;;;;;;;;56.00;33.00;;;;;;;;10454903;28;42997;-58
2024/04/17 06:55:31;;;;;;;;;54.00;33.75;;;;;;;;10455867;28;44978;-59
2024/04/17 07:00:36;;;;;;;;;62.00;35.00;;;;;;;;10458147;28;43139;-58
2024/04/17 07:05:40;;;;;;;;;62.00;39.25;;;;;;;;10453278;28;43760;-59
2024/04/17 07:10:43;;;;;;;;;59.00;37.75;;;;;;;;10455504;28;43795;-59
2024/04/17 07:15:47;;;;;;;;;61.00;34.00;;;;;;;;10466753;27;44437;-59
2024/04/17 07:20:52;;;;;;;;;59.25;37.75;;;;;;;;10472095;27;49391;-57
2024/04/17 07:25:56;;;;;;;;;63.50;38.25;;;;;;;;10497414;27;43000;-57
2024/04/17 07:30:59;;;;;;;;;64.75;40.50;;;;;;;;10498980;27;42969;-58
2024/04/17 07:36:03;;;;;;;;;61.00;39.00;;;;;;;;10489001;27;43727;-58
2024/04/17 07:41:06;;;;;;;;;61.50;38.50;;;;;;;;10492876;27;43639;-59
2024/04/17 07:46:11;;;;;;;;;62.50;41.00;;;;;;;;10486376;28;42973;-58
2024/04/17 07:51:15;;;;;;;;;59.75;38.25;;;;;;;;10492797;28;43255;-58
2024/04/17 07:56:19;;;;;;;;;55.75;36.00;;;;;;;;10496356;27;45286;-58
2024/04/17 08:01:22;;;;;;;;;60.00;38.75;;;;;;;;10482161;27;44640;-58
2024/04/17 08:06:26;;;;;;;;;59.75;41.00;;;;;;;;10483246;27;43846;-58
2024/04/17 08:11:35;;;;;;;;;62.25;39.75;;;;;;;;10491475;27;43571;-58
2024/04/17 08:16:38;;;;;;;;;62.25;39.75;;;;;;;;10483132;27;45380;-59
2024/04/17 08:21:42;;;;;;;;;61.50;38.50;;;;;;;;10483733;28;43115;-59
2024/04/17 08:26:46;;;;;;;;;58.50;38.00;;;;;;;;10493040;28;44113;-57
2024/04/17 08:31:49;;;;;;;;;59.00;39.00;;;;;;;;10495804;28;43574;-57
2024/04/17 08:36:53;;;;;;;;;61.50;37.75;;;;;;;;10498042;27;43101;-57
2024/04/17 08:42:03;;;;;;;;;64.50;40.00;;;;;;;;10494011;27;48372;-57
2024/04/17 08:47:07;;;;;;;;;61.75;38.50;;;;;;;;10489269;27;49108;-58
2024/04/17 08:52:12;;;;;;;;;60.25;37.75;;;;;;;;10484817;27;43064;-57
2024/04/17 08:57:15;;;;;;;;;54.75;36.00;;;;;;;;10480964;27;43625;-57
2024/04/17 09:02:20;;;;;;;;;62.50;37.75;;;;;;;;10525607;27;43077;-57
2024/04/17 09:07:24;;;;;;;;;61.25;33.25;;;;;;;;10488815;27;43969;-58
2024/04/17 09:12:30;;;;;;;;;59.00;35.00;;;;;;;;10474222;28;43595;-57
2024/04/17 09:17:34;;;;;;;;;61.00;39.50;;;;;;;;10494008;27;43585;-57
2024/04/17 09:22:38;;;;;;;;;56.50;39.00;;;;;;;;10493323;27;42981;-57
2024/04/17 09:27:42;;;;;;;;;59.25;38.75;;;;;;;;10486070;27;43428;-57
2024/04/17 09:32:47;;;;;;;;;60.00;37.00;;;;;;;;10500513;27;43151;-58
2024/04/17 09:37:50;;;;;;;;;53.25;36.00;;;;;;;;10505268;27;42943;-57
2024/04/17 09:42:56;;;;;;;;;59.25;33.50;;;;;;;;10496151;27;43386;-57
2024/04/17 09:48:00;;;;;;;;;52.25;33.75;;;;;;;;10490685;27;43133;-57
2024/04/17 09:53:04;;;;;;;;;57.75;38.50;;;;;;;;10499112;28;43790;-57
2024/04/17 09:58:09;;;;;;;;;51.75;31.25;;;;;;;;10488583;28;43187;-58
2024/04/17 10:03:13;;;;;;;;;47.50;31.00;;;;;;;;10499798;27;43932;-58
2024/04/17 10:08:17;;;;;;;;;46.75;25.50;;;;;;;;10499143;28;43801;-58
2024/04/17 10:13:22;;;;;;;;;46.50;25.75;;;;;;;;10477616;28;43568;-58
2024/04/17 10:18:25;;;;;;;;;47.75;27.00;;;;;;;;10461687;28;43578;-58
2024/04/17 10:23:29;;;;;;;;;40.00;26.25;;;;;;;;10458411;28;43106;-58
2024/04/17 10:28:33;;;;;;;;;38.75;22.25;;;;;;;;10444015;28;43036;-62
2024/04/17 10:33:39;;;;;;;;;41.75;25.00;;;;;;;;10456840;28;43223;-58
2024/04/17 10:38:43;;;;;;;;;45.50;27.50;;;;;;;;10456801;28;42912;-58
2024/04/17 10:43:46;;;;;;;;;43.50;24.00;;;;;;;;10456922;28;43782;-59
2024/04/17 10:48:51;;;;;;;;;45.00;26.25;;;;;;;;10481445;27;43073;-60
2024/04/17 10:53:54;;;;;;;;;46.25;26.25;;;;;;;;10499551;28;49197;-59
2024/04/17 10:59:00;;;;;;;;;49.75;25.50;;;;;;;;10491629;28;43137;-59
2024/04/17 11:04:04;;;;;;;;;39.00;20.75;;;;;;;;10474792;28;43592;-60
2024/04/17 11:09:09;;;;;;;;;43.25;24.50;;;;;;;;10474031;28;42917;-60
2024/04/17 11:14:16;;;;;;;;;45.00;25.25;;;;;;;;10473100;27;43004;-60
2024/04/17 11:19:19;;;;;;;;;43.25;25.25;;;;;;;;10506307;28;43049;-60
2024/04/17 11:24:23;;;;;;;;;38.00;24.00;;;;;;;;10493173;28;43078;-60
2024/04/17 11:29:27;;;;;;;;;40.50;21.25;;;;;;;;10473644;28;43516;-60
2024/04/17 11:34:31;;;;;;;;;33.00;18.50;;;;;;;;10498347;28;42948;-60
2024/04/17 11:39:36;;;;;;;;;40.25;19.00;;;;;;;;10499642;28;43030;-60
2024/04/17 11:44:43;;;;;;;;;43.25;22.25;;;;;;;;10532886;27;43075;-61
2024/04/17 11:49:48;;;;;;;;;39.25;24.75;;;;;;;;10498201;28;43119;-61
2024/04/17 11:54:51;;;;;;;;;40.00;25.00;;;;;;;;10496394;27;43389;-61
2024/04/17 11:59:56;;;;;;;;;35.25;17.75;;;;;;;;10496743;28;44084;-59
2024/04/17 12:04:59;;;;;;;;;36.50;18.75;;;;;;;;10496653;27;42976;-59
2024/04/17 12:10:04;;;;;;;;;36.00;19.25;;;;;;;;10497294;28;44340;-59
2024/04/17 12:15:08;;;;;;;;;37.25;22.25;;;;;;;;10482120;28;49882;-59
2024/04/17 12:20:12;;;;;;;;;36.00;20.50;;;;;;;;10437686;28;48838;-61
2024/04/17 12:30:36;;;;;;;;;39.25;18.50;;;;;;;;10453579;28;49582;-61
2024/04/17 12:35:40;;;;;;;;;42.25;24.00;;;;;;;;10455449;28;48389;-59
2024/04/17 12:40:45;;;;;;;;;37.00;18.25;;;;;;;;10453571;28;48300;-60
2024/04/17 12:45:49;;;;;;;;;36.75;20.25;;;;;;;;10452265;28;49922;-59
2024/04/17 12:50:53;;;;;;;;;32.50;19.00;;;;;;;;10449849;28;49770;-61
2024/04/17 12:55:58;;;;;;;;;40.75;25.50;;;;;;;;10438331;28;49426;-59
2024/04/17 13:01:04;;;;;;;;;47.75;27.25;;;;;;;;10450429;28;49959;-59
2024/04/17 13:06:07;;;;;;;;;42.25;26.25;;;;;;;;10451361;28;48622;-59
2024/04/17 13:11:11;;;;;;;;;44.00;28.50;;;;;;;;10449579;28;43681;-59
2024/04/17 13:16:15;;;;;;;;;45.75;25.00;;;;;;;;10469318;28;43733;-59
2024/04/17 13:21:20;;;;;;;;;54.00;32.00;;;;;;;;10494066;28;43040;-59
2024/04/17 13:26:23;;;;;;;;;55.25;32.75;;;;;;;;10483798;27;43560;-58
2024/04/17 13:31:27;;;;;;;;;92.00;67.50;;;;;;;;10491140;28;43528;-59
2024/04/17 13:36:30;;;;;;;;;97.00;70.75;;;;;;;;10489741;28;42992;-59
2024/04/17 13:41:35;;;;;;;;;77.00;55.50;;;;;;;;10494142;27;43000;-60
2024/04/17 13:46:40;;;;;;;;;94.25;73.50;;;;;;;;10489244;28;43039;-60
2024/04/17 13:51:44;;;;;;;;;115.50;80.50;;;;;;;;10494806;27;43173;-60
2024/04/17 13:56:48;;;;;;;;;110.25;83.00;;;;;;;;10495286;27;42976;-60
2024/04/17 14:01:53;;;;;;;;;120.75;89.25;;;;;;;;10483410;27;43299;-60
2024/04/17 14:06:56;;;;;;;;;123.50;90.50;;;;;;;;10494320;28;43015;-60
2024/04/17 14:12:00;;;;;;;;;128.33;95.00;;;;;;;;10497665;27;43471;-60
2024/04/17 14:17:03;;;;;;;;;136.67;110.00;;;;;;;;10501832;27;43006;-60
2024/04/17 14:22:06;;;;;;;;;154.00;123.67;;;;;;;;10487276;27;44172;-60
2024/04/17 14:27:09;;;;;;;;;168.00;134.00;;;;;;;;10506010;28;43236;-61
2024/04/17 14:32:13;;;;;;;;;197.50;157.00;;;;;;;;10498328;27;43262;-60
2024/04/17 14:37:17;;;;;;;;;195.00;160.50;;;;;;;;10498076;27;43277;-61
2024/04/17 14:42:21;;;;;;;;;222.25;170.50;;;;;;;;10506908;27;43858;-61
2024/04/17 14:47:25;;;;;;;;;215.00;175.50;;;;;;;;10501939;28;42894;-61
2024/04/17 14:52:47;;;;;;;;;236.50;182.75;;;;;;;;10502841;28;43544;-61
2024/04/17 14:57:55;;;;;;;;;250.50;200.25;;;;;;;;10496444;28;43707;-61
2024/04/17 15:02:59;;;;;;;;;266.25;220.00;;;;;;;;10495682;28;43779;-61
2024/04/17 15:08:02;;;;;;;;;276.25;222.75;;;;;;;;10496470;28;43326;-61
2024/04/17 15:13:06;;;;;;;;;294.00;241.50;;;;;;;;10488008;28;43060;-61
2024/04/17 15:18:10;;;;;;;;;294.25;238.75;;;;;;;;10466588;28;43032;-61
2024/04/17 15:23:13;;;;;;;;;303.75;250.00;;;;;;;;10449814;28;43050;-60
2024/04/17 15:28:16;;;;;;;;;312.50;253.75;;;;;;;;10445555;28;43644;-61
2024/04/17 15:33:20;;;;;;;;;324.25;265.75;;;;;;;;10455140;28;43024;-60
2024/04/17 15:38:27;;;;;;;;;321.00;263.50;;;;;;;;10452751;28;43482;-60
2024/04/17 15:43:33;;;;;;;;;333.75;267.25;;;;;;;;10455118;28;42988;-60
2024/04/17 15:54:17;;;;;;;;;324.00;254.50;;;;;;;;10455218;28;43160;-60
2024/04/17 15:59:20;;;;;;;;;301.00;251.00;;;;;;;;10455015;28;43160;-60
2024/04/17 16:04:23;;;;;;;;;310.50;253.25;;;;;;;;10452550;28;43014;-60
2024/04/17 16:09:27;;;;;;;;;304.25;248.50;;;;;;;;10451950;28;43004;-60
2024/04/17 16:14:31;;;;;;;;;299.75;248.00;;;;;;;;10454368;28;43569;-60
2024/04/17 16:19:34;;;;;;;;;307.00;250.50;;;;;;;;10497122;28;43207;-60
2024/04/17 16:24:39;;;;;;;;;292.25;242.75;;;;;;;;10489576;28;43385;-60
2024/04/17 16:30:01;;;;;;;;;305.00;248.00;;;;;;;;10494542;28;42972;-61
2024/04/17 16:45:50;;;;;;;;;293.25;232.25;;;;;;;;10494090;28;48462;-61
2024/04/17 16:51:11;;;;;;;;;287.25;233.25;;;;;;;;10495303;27;49379;-61
2024/04/17 16:56:15;;;;;;;;;296.00;238.00;;;;;;;;10493096;28;43723;-61
2024/04/17 17:01:18;;;;;;;;;297.00;242.50;;;;;;;;10495418;27;43081;-60
2024/04/17 17:06:22;;;;;;;;;312.50;241.25;;;;;;;;10493622;28;43806;-60
2024/04/17 17:11:25;;;;;;;;;311.00;250.50;;;;;;;;10495837;27;43116;-60
2024/04/17 17:16:28;;;;;;;;;300.00;243.00;;;;;;;;10480086;27;43040;-60
2024/04/17 17:21:31;;;;;;;;;297.00;242.75;;;;;;;;10452065;28;43755;-60
2024/04/17 17:26:52;;;;;;;;;304.25;248.50;;;;;;;;10447638;28;43026;-60
2024/04/17 17:31:56;;;;;;;;;280.75;231.25;;;;;;;;10451779;28;43012;-60
2024/04/17 17:36:59;;;;;;;;;292.25;231.75;;;;;;;;10452956;28;43082;-60
2024/04/17 17:42:20;;;;;;;;;288.25;225.75;;;;;;;;10452653;28;43236;-60
2024/04/17 17:47:24;;;;;;;;;270.50;227.00;;;;;;;;10451595;28;42947;-60
2024/04/17 17:52:27;;;;;;;;;268.75;220.25;;;;;;;;10462288;28;43239;-60
2024/04/17 17:57:30;;;;;;;;;280.00;233.00;;;;;;;;10457979;28;43015;-60
2024/04/17 18:02:32;;;;;;;;;259.25;221.50;;;;;;;;10458778;28;43486;-60
2024/04/17 18:07:35;;;;;;;;;270.75;217.00;;;;;;;;10460639;28;43491;-61
2024/04/17 18:12:56;;;;;;;;;279.75;222.75;;;;;;;;10458195;28;42912;-60
2024/04/17 18:18:11;;;;;;;;;266.75;216.50;;;;;;;;10504397;27;42974;-60
2024/04/17 18:23:15;;;;;;;;;272.50;219.75;;;;;;;;10481730;28;43587;-60
2024/04/17 18:33:42;;;;;;;;;253.00;215.25;;;;;;;;10473192;27;43143;-60
2024/04/17 18:38:45;;;;;;;;;265.50;216.25;;;;;;;;10482652;28;43701;-60
2024/04/17 18:44:00;;;;;;;;;266.25;217.50;;;;;;;;10496532;27;43097;-60
2024/04/17 18:49:02;;;;;;;;;276.00;228.00;;;;;;;;10511255;27;43232;-60
2024/04/17 18:54:05;;;;;;;;;267.25;213.00;;;;;;;;10510000;27;43590;-60
2024/04/17 18:59:07;;;;;;;;;262.50;216.00;;;;;;;;10504436;27;44043;-60
2024/04/17 19:04:12;;;;;;;;;263.25;213.25;;;;;;;;10505714;27;43732;-60
2024/04/17 19:09:15;;;;;;;;;258.25;216.75;;;;;;;;10503013;27;43634;-60
2024/04/17 19:14:37;;;;;;;;;272.75;221.50;;;;;;;;10499794;27;43100;-60
2024/04/17 19:19:41;;;;;;;;;260.50;209.75;;;;;;;;10459935;28;43046;-60
2024/04/17 19:24:44;;;;;;;;;270.00;223.50;;;;;;;;10455992;28;43560;-60
2024/04/17 19:29:48;;;;;;;;;267.50;212.25;;;;;;;;10454867;28;42996;-61
2024/04/17 19:34:57;;;;;;;;;257.75;213.75;;;;;;;;10439298;28;44529;-61
2024/04/17 19:40:00;;;;;;;;;250.50;206.50;;;;;;;;10455629;28;43518;-61
2024/04/17 19:45:04;;;;;;;;;261.75;208.00;;;;;;;;10457652;27;49340;-60
2024/04/17 19:50:08;;;;;;;;;258.00;211.25;;;;;;;;10460189;28;42947;-61
2024/04/17 19:55:11;;;;;;;;;253.25;210.25;;;;;;;;10456551;28;42977;-61
2024/04/17 20:00:15;;;;;;;;;254.00;215.00;;;;;;;;10453989;28;49602;-61
2024/04/17 20:05:19;;;;;;;;;260.25;214.00;;;;;;;;10454360;28;43959;-61
2024/04/17 20:10:22;;;;;;;;;268.00;215.00;;;;;;;;10455616;28;43096;-61
2024/04/17 20:15:29;;;;;;;;;265.00;210.00;;;;;;;;10456358;28;49661;-61
2024/04/17 20:20:32;;;;;;;;;277.50;223.50;;;;;;;;10448937;28;49768;-61
2024/04/17 20:25:39;;;;;;;;;261.75;214.75;;;;;;;;10464894;28;43681;-61
2024/04/17 20:30:42;;;;;;;;;258.50;212.50;;;;;;;;10442326;28;48507;-61
2024/04/17 20:35:45;;;;;;;;;267.00;213.50;;;;;;;;10432184;28;45110;-61
2024/04/17 20:40:53;;;;;;;;;274.75;219.50;;;;;;;;10443472;28;49558;-61
2024/04/17 20:45:57;;;;;;;;;283.25;221.75;;;;;;;;10448177;28;48823;-61
2024/04/17 20:51:00;;;;;;;;;270.25;220.00;;;;;;;;10439283;28;51511;-61
2024/04/17 20:56:02;;;;;;;;;257.00;220.75;;;;;;;;10450350;28;48414;-62
2024/04/17 21:01:06;;;;;;;;;264.25;221.25;;;;;;;;10450580;28;43502;-61
2024/04/17 21:06:09;;;;;;;;;271.75;224.75;;;;;;;;10479660;27;43476;-61
2024/04/17 21:11:13;;;;;;;;;278.50;232.75;;;;;;;;10454840;28;43345;-61
2024/04/17 21:16:23;;;;;;;;;272.00;208.25;;;;;;;;10460249;28;43033;-61
2024/04/17 21:21:27;;;;;;;;;277.00;222.50;;;;;;;;10451776;28;43469;-61
2024/04/17 21:26:31;;;;;;;;;270.25;220.00;;;;;;;;10450379;28;43273;-61
2024/04/17 21:31:34;;;;;;;;;282.00;230.00;;;;;;;;10452767;28;44123;-61
2024/04/17 21:36:38;;;;;;;;;277.00;220.50;;;;;;;;10451048;28;43621;-61
2024/04/17 21:41:42;;;;;;;;;291.00;236.75;;;;;;;;10452059;28;43466;-61
2024/04/17 21:46:44;;;;;;;;;277.50;226.00;;;;;;;;10452117;28;42947;-61
2024/04/17 21:51:47;;;;;;;;;281.25;231.50;;;;;;;;10449048;28;45540;-61
2024/04/17 21:56:50;;;;;;;;;277.25;228.75;;;;;;;;10450400;28;42898;-61
2024/04/17 22:01:52;;;;;;;;;285.75;237.00;;;;;;;;10453947;28;43594;-61
2024/04/17 22:06:55;;;;;;;;;284.25;239.00;;;;;;;;10451664;28;44123;-59
2024/04/17 22:11:58;;;;;;;;;328.25;261.25;;;;;;;;10453691;28;43273;-58
2024/04/17 22:17:01;;;;;;;;;331.25;273.50;;;;;;;;10448584;28;42964;-60
2024/04/17 22:22:05;;;;;;;;;339.25;274.50;;;;;;;;10442840;28;43195;-64
2024/04/17 22:27:10;;;;;;;;;373.75;300.00;;;;;;;;10447129;28;44554;-62
2024/04/17 22:32:13;;;;;;;;;344.75;288.75;;;;;;;;10441335;28;44093;-60
2024/04/17 22:37:16;;;;;;;;;358.50;289.75;;;;;;;;10443273;28;43027;-59
2024/04/17 22:42:18;;;;;;;;;364.75;292.25;;;;;;;;10448910;28;49202;-62
2024/04/17 22:47:22;;;;;;;;;355.00;290.25;;;;;;;;10446284;28;42912;-62
2024/04/17 22:52:28;;;;;;;;;377.25;304.25;;;;;;;;10453177;28;42940;-61
2024/04/17 22:57:33;;;;;;;;;365.25;297.00;;;;;;;;10450849;28;43099;-62
2024/04/17 23:02:36;;;;;;;;;364.25;302.25;;;;;;;;10439217;28;43551;-61
2024/04/17 23:07:39;;;;;;;;;376.75;307.25;;;;;;;;10430616;28;43603;-60
2024/04/17 23:12:43;;;;;;;;;346.25;282.25;;;;;;;;10434541;28;44159;-60
2024/04/17 23:17:46;;;;;;;;;322.75;265.75;;;;;;;;10452955;27;44315;-58
2024/04/17 23:22:50;;;;;;;;;168.00;123.33;;;;;;;;10507174;27;43253;-59
2024/04/17 23:27:53;;;;;;;;;187.25;152.75;;;;;;;;10504904;27;43142;-60
2024/04/17 23:32:56;;;;;;;;;165.00;125.67;;;;;;;;10505475;27;44003;-59
2024/04/17 23:37:59;;;;;;;;;128.00;93.00;;;;;;;;10502632;27;44179;-59
2024/04/17 23:43:03;;;;;;;;;155.00;114.33;;;;;;;;10501495;27;42935;-62
2024/04/17 23:48:06;;;;;;;;;135.25;99.75;;;;;;;;10491502;27;43013;-60
2024/04/17 23:53:09;;;;;;;;;158.33;117.00;;;;;;;;10494706;27;43136;-58
2024/04/17 23:58:12;;;;;;;;;153.67;117.33;;;;;;;;10483968;28;44084;-58
